createdAt,value
2022-09-07T00:02:55.579Z,0
2022-09-07T00:07:57.640Z,0.88715
2022-09-07T00:12:59.446Z,0
2022-09-07T00:18:01.339Z,0
2022-09-07T00:23:03.275Z,0
2022-09-07T00:28:05.202Z,0.88715
2022-09-07T00:33:06.712Z,0.88715
2022-09-07T00:38:08.441Z,0
2022-09-07T00:43:10.202Z,0.88715
2022-09-07T00:48:11.751Z,0.88715
2022-09-07T00:53:13.741Z,0
2022-09-07T00:58:15.542Z,0
2022-09-07T01:03:17.312Z,0.88715
2022-09-07T01:08:19.236Z,0.88715
2022-09-07T01:13:21.140Z,0
2022-09-07T01:18:22.835Z,0.88715
2022-09-07T01:23:24.560Z,0.88715
2022-09-07T01:28:26.470Z,0
2022-09-07T01:33:28.366Z,0
2022-09-07T01:38:30.380Z,0
2022-09-07T01:43:32.169Z,0.88715
2022-09-07T01:48:33.943Z,0
2022-09-07T01:53:35.727Z,0
2022-09-07T01:58:37.427Z,0
2022-09-07T02:03:39.147Z,0.88715
2022-09-07T02:08:41.001Z,0.88715
2022-09-07T02:13:43.008Z,0
2022-09-07T02:18:44.880Z,0.88715
2022-09-07T02:23:46.668Z,0
2022-09-07T02:28:48.468Z,0.88715
2022-09-07T02:33:50.240Z,0
2022-09-07T02:38:52.285Z,0
2022-09-07T02:43:54.038Z,0.88715
2022-09-07T02:48:55.707Z,0.88715
2022-09-07T02:53:57.452Z,0
2022-09-07T02:58:59.201Z,0.88715
2022-09-07T03:04:00.940Z,0.88715
2022-09-07T03:09:02.968Z,0.88715
2022-09-07T03:14:04.491Z,0
2022-09-07T03:19:06.334Z,0
2022-09-07T03:24:07.952Z,0
2022-09-07T03:29:09.437Z,0.88715
2022-09-07T03:34:10.897Z,0.88715
2022-09-07T03:39:12.601Z,0
2022-09-07T03:44:14.076Z,0.88715
2022-09-07T03:49:15.678Z,0.88715
2022-09-07T03:54:17.102Z,1.16185
2022-09-07T03:59:18.594Z,0.8296
2022-09-07T04:04:20.183Z,1.83695
2022-09-07T04:09:21.847Z,4.7767
2022-09-07T04:14:23.283Z,13.463
2022-09-07T04:19:24.768Z,21.9097
2022-09-07T04:24:26.336Z,39.6512
2022-09-07T04:29:27.857Z,60.0853
2022-09-07T04:34:29.354Z,83.02755
2022-09-07T04:39:31.002Z,108.10905
2022-09-07T04:44:32.500Z,137.6535
2022-09-07T04:49:34.062Z,169.15275
2022-09-07T04:54:35.527Z,198.51275
2022-09-07T04:59:37.209Z,221.455
2022-09-07T05:04:38.825Z,251.0546
2022-09-07T05:09:40.603Z,276.7446
2022-09-07T05:14:42.453Z,304.81345
2022-09-07T05:19:44.143Z,325.61645
2022-09-07T05:24:46.199Z,355.21605
2022-09-07T05:30:04.458Z,376.9413
2022-09-07T05:35:06.893Z,408.56985
2022-09-07T05:40:08.671Z,427.2526
2022-09-07T05:45:10.507Z,460.5602
2022-09-07T05:50:12.319Z,498.46005
2022-09-07T05:55:29.405Z,541.19175
2022-09-07T06:00:32.773Z,572.9686
2022-09-07T06:05:34.730Z,598.62245
2022-09-07T06:10:44.425Z,627.2085
2022-09-07T06:15:46.934Z,631.7646
2022-09-07T06:20:48.722Z,658.52515
2022-09-07T06:25:50.569Z,677.8164
2022-09-07T06:30:52.454Z,703.59955
2022-09-07T06:35:54.436Z,723.44415
2022-09-07T06:52:02.859Z,815.41845
2022-09-07T06:57:04.677Z,817.04235
2022-09-07T07:02:06.502Z,863.07515
2022-09-07T07:07:08.164Z,875.10055
2022-09-07T07:12:10.122Z,884.2489
2022-09-07T07:17:11.570Z,914.20025
2022-09-07T07:27:25.548Z,941.55215
2022-09-07T07:32:27.340Z,967.1147
2022-09-07T07:37:28.795Z,997.56425
2022-09-07T07:42:30.735Z,1043.72635
2022-09-07T07:47:32.432Z,1057.2825
2022-09-07T07:58:05.990Z,1105.77015
2022-09-07T08:03:07.690Z,1110.71415
2022-09-07T08:08:09.267Z,1160.4911
2022-09-07T08:13:11.129Z,1177.60695
2022-09-07T08:18:12.708Z,1197.5257
2022-09-07T08:23:14.393Z,1231.75555
2022-09-07T08:28:16.079Z,1270.6518
2022-09-07T08:33:17.570Z,1288.48645
2022-09-07T08:38:21.057Z,1340.5871
2022-09-07T08:43:23.314Z,1356.33765
2022-09-07T08:48:25.286Z,1376.7546
2022-09-07T08:53:27.001Z,1336.49675
2022-09-07T08:58:48.077Z,1439.7188
2022-09-07T09:04:16.610Z,1455.46935
2022-09-07T09:09:18.708Z,1497.1495
2022-09-07T09:14:20.816Z,1546.05935
2022-09-07T09:19:22.550Z,1518.3594
2022-09-07T09:24:24.299Z,1602.6971
2022-09-07T09:29:26.221Z,1630.80395
2022-09-07T09:34:31.246Z,1632.90705
2022-09-07T09:39:35.377Z,1674.3286
2022-09-07T09:44:37.537Z,1680.65505
2022-09-07T09:49:39.343Z,1711.6941
2022-09-07T09:54:41.228Z,1755.2739
2022-09-07T10:00:02.669Z,1751.8625
2022-09-07T10:05:06.000Z,1771.1899
2022-09-07T10:10:07.935Z,1819.58255
2022-09-07T10:15:09.579Z,1880.51595
2022-09-07T10:20:11.071Z,1916.75575
2022-09-07T10:25:12.540Z,1965.9965
2022-09-07T10:30:14.321Z,1983.2398
2022-09-07T10:35:15.873Z,2082.4971
2022-09-07T10:40:17.392Z,2094.64995
2022-09-07T10:45:19.214Z,2137.99015
2022-09-07T10:50:22.303Z,2194.5519
2022-09-07T10:55:24.476Z,2223.543
2022-09-07T11:00:26.260Z,2305.6293
2022-09-07T11:05:32.768Z,2314.7758
2022-09-07T11:10:37.195Z,2351.4378
2022-09-07T11:15:39.314Z,2356.96945
2022-09-07T11:20:41.241Z,2423.26905
2022-09-07T11:25:43.079Z,2410.1008
2022-09-07T11:30:45.049Z,2457.36775
2022-09-07T11:35:46.861Z,2486.5243
2022-09-07T11:40:48.615Z,2478.7774
2022-09-07T11:45:50.635Z,2336.79025
2022-09-07T11:50:52.574Z,2420.5176
2022-09-07T11:55:54.255Z,2351.41325
2022-09-07T12:00:56.082Z,2411.2381
2022-09-07T12:05:58.072Z,2384.643
2022-09-07T12:10:59.800Z,2511.43295
2022-09-07T12:16:02.124Z,2401.27595
2022-09-07T12:21:03.969Z,2448.94795
2022-09-07T12:26:05.804Z,2429.67385
2022-09-07T12:31:07.569Z,2409.4052
2022-09-07T12:36:09.305Z,2348.8027
2022-09-07T12:41:10.786Z,2333.7158
2022-09-07T12:46:12.750Z,2340.1507
2022-09-07T12:51:14.811Z,2352.06395
2022-09-07T12:56:17.065Z,2274.10785
2022-09-07T13:01:19.111Z,2216.7513
2022-09-07T13:07:01.782Z,2161.10995
2022-09-07T13:12:03.697Z,2101.00565
2022-09-07T13:17:17.593Z,2116.14585
2022-09-07T13:22:19.380Z,2033.17345
2022-09-07T13:27:20.868Z,1924.87995
2022-09-07T13:32:22.615Z,1861.84345
2022-09-07T13:37:24.310Z,1810.31515
2022-09-07T13:42:26.106Z,1701.41315
2022-09-07T13:47:28.103Z,1564.73705
2022-09-07T13:52:30.255Z,1617.44435
2022-09-07T13:57:32.157Z,1539.1745
2022-09-07T14:02:34.185Z,1462.87845
2022-09-07T14:07:36.053Z,1399.49205
2022-09-07T14:12:37.861Z,1298.742
2022-09-07T14:17:40.262Z,1252.65405
2022-09-07T14:22:42.031Z,1192.274
2022-09-07T14:27:43.817Z,1084.8476
2022-09-07T14:32:45.435Z,986.3471
2022-09-07T14:37:47.336Z,883.49395
2022-09-07T14:42:49.896Z,804.6346
2022-09-07T14:47:52.440Z,699.2733
2022-09-07T14:58:26.197Z,491.8328
2022-09-07T15:03:27.998Z,406.8866
2022-09-07T15:08:29.529Z,325.85
2022-09-07T15:13:31.119Z,256.24745
2022-09-07T15:18:32.981Z,197.9196
2022-09-07T15:23:34.435Z,155.43205
2022-09-07T15:34:08.260Z,96.6407
2022-09-07T15:39:10.273Z,87.71295
2022-09-07T15:44:13.718Z,64.7517
2022-09-07T15:49:15.595Z,45.7742
2022-09-07T15:54:17.055Z,28.2723
2022-09-07T15:59:18.649Z,13.03895
2022-09-07T16:04:23.530Z,8.4467
2022-09-07T16:09:25.268Z,2.9036
2022-09-07T16:14:26.693Z,1.6592
2022-09-07T16:19:28.360Z,1.16185
2022-09-07T16:24:30.109Z,0
2022-09-07T16:29:32.123Z,0.88715
2022-09-07T16:34:33.981Z,0.88715
2022-09-07T16:39:35.820Z,0.88715
2022-09-07T16:44:37.587Z,0
2022-09-07T16:49:39.727Z,0
2022-09-07T16:54:41.695Z,0.88715
2022-09-07T16:59:43.214Z,0.88715
2022-09-07T17:04:44.969Z,0.88715
2022-09-07T17:09:46.751Z,0
2022-09-07T17:14:48.492Z,0
2022-09-07T17:19:50.887Z,0
2022-09-07T17:24:54.638Z,0
2022-09-07T17:29:56.420Z,0.88715
2022-09-07T17:34:58.311Z,0.88715
2022-09-07T17:40:00.217Z,0
2022-09-07T17:45:02.242Z,0
2022-09-07T17:50:04.511Z,0.88715
2022-09-07T17:55:06.330Z,0.88715
2022-09-07T18:00:11.212Z,0.88715
2022-09-07T18:05:13.592Z,0
2022-09-07T18:10:15.029Z,0.88715
2022-09-07T18:15:16.479Z,0.88715
2022-09-07T18:20:19.156Z,0
2022-09-07T18:25:20.768Z,0.88715
2022-09-07T18:30:22.375Z,0.88715
2022-09-07T18:35:24.009Z,0.88715
2022-09-07T18:40:25.581Z,0.88715
2022-09-07T18:45:28.030Z,0.88715
2022-09-07T18:50:30.064Z,0
2022-09-07T18:55:32.370Z,0
2022-09-07T19:00:33.973Z,0
2022-09-07T19:05:52.560Z,0.88715
2022-09-07T19:10:54.769Z,0.88715
2022-09-07T19:15:56.621Z,0.88715
2022-09-07T19:20:58.519Z,0
2022-09-07T19:26:00.107Z,0.88715
2022-09-07T19:31:01.566Z,0.88715
2022-09-07T19:36:03.222Z,0.88715
2022-09-07T19:41:04.901Z,0
2022-09-07T19:46:06.469Z,0.88715
2022-09-07T19:51:08.279Z,0.88715
2022-09-07T19:56:10.040Z,0
2022-09-07T20:01:11.640Z,0
2022-09-07T20:06:13.166Z,0.88715
2022-09-07T20:11:14.713Z,0.88715
2022-09-07T20:16:16.283Z,0.88715
2022-09-07T20:21:18.073Z,0.88715
2022-09-07T20:26:19.954Z,0
2022-09-07T20:31:21.518Z,0
2022-09-07T20:36:23.150Z,0
2022-09-07T20:41:25.000Z,0
2022-09-07T20:46:26.536Z,0.88715
2022-09-07T20:51:28.473Z,0.88715
2022-09-07T20:56:30.122Z,0
2022-09-07T21:01:32.064Z,0.88715
2022-09-07T21:06:34.167Z,0.88715
2022-09-07T21:11:35.950Z,0.88715
2022-09-07T21:16:37.676Z,0.88715
2022-09-07T21:21:39.741Z,0.88715
2022-09-07T21:26:41.505Z,0.88715
2022-09-07T21:31:43.580Z,0.88715
2022-09-07T21:36:45.455Z,0.88715
2022-09-07T21:41:48.143Z,0.88715
2022-09-07T21:46:51.450Z,0.88715
2022-09-07T21:51:53.573Z,0
2022-09-07T21:56:55.577Z,0
2022-09-07T22:01:57.555Z,0.88715
2022-09-07T22:06:59.421Z,0
2022-09-07T22:12:01.391Z,0
2022-09-07T22:17:03.250Z,0
2022-09-07T22:22:05.300Z,0
2022-09-07T22:27:07.044Z,0.88715
2022-09-07T22:32:08.801Z,0.88715
2022-09-07T22:37:10.908Z,0.88715
2022-09-07T22:42:12.799Z,0
2022-09-07T22:47:14.580Z,0.88715
2022-09-07T22:52:16.863Z,0.88715
2022-09-07T22:57:18.502Z,0
2022-09-07T23:02:20.357Z,0.88715
2022-09-07T23:07:22.093Z,0
2022-09-07T23:12:23.754Z,0
2022-09-07T23:17:25.621Z,0.88715
2022-09-07T23:22:27.789Z,0.88715
2022-09-07T23:27:29.687Z,0
2022-09-07T23:32:31.534Z,0
2022-09-07T23:37:33.819Z,0
2022-09-07T23:42:35.833Z,0
2022-09-07T23:47:37.913Z,0.88715
2022-09-07T23:52:39.882Z,0
2022-09-07T23:57:41.885Z,0.88715
